Time;durP1;ratioP1;P1;durP2;ratioP2;P2;SDS_P1;SDS_P2;PMS_P1;PMS_P2;Temp;Humidity;BMP_temperature;BMP_pressure;BME280_temperature;BME280_humidity;BME280_pressure;Samples;Min_cycle;Max_cycle;Signal;HPM_P1;HPM_P2
2023/04/07 00:00:41;;;;;;;11.85;9.00;;;;;;;;;;4961087;29;20646;-62
2023/04/07 00:03:11;;;;;;;17.25;10.70;;;;;;;;;;4960320;28;20232;-63
2023/04/07 00:05:41;;;;;;;21.13;15.20;;;;;;;;;;4962086;28;20274;-63
2023/04/07 00:08:09;;;;;;;13.57;12.05;;;;;;;;;;4980241;28;20278;-64
2023/04/07 00:10:37;;;;;;;18.58;13.68;;;;;;;;;;4981633;28;20262;-63
2023/04/07 00:13:06;;;;;;;15.95;11.50;;;;;;;;;;4980372;28;20314;-62
2023/04/07 00:15:34;;;;;;;15.55;10.65;;;;;;;;;;4980585;28;20303;-62
2023/04/07 00:18:02;;;;;;;16.60;10.60;;;;;;;;;;4963447;28;20290;-65
2023/04/07 00:20:30;;;;;;;11.48;10.30;;;;;;;;;;4961429;28;20306;-63
2023/04/07 00:23:00;;;;;;;13.18;10.75;;;;;;;;;;4974853;28;20258;-63
2023/04/07 00:25:28;;;;;;;13.88;11.90;;;;;;;;;;4963976;28;20338;-64
2023/04/07 00:27:56;;;;;;;13.30;11.35;;;;;;;;;;4979408;28;20701;-63
2023/04/07 00:30:25;;;;;;;13.43;11.07;;;;;;;;;;4979666;28;20286;-63
2023/04/07 00:32:53;;;;;;;14.60;11.25;;;;;;;;;;4962153;28;20294;-64
2023/04/07 00:35:21;;;;;;;14.95;11.82;;;;;;;;;;4980432;28;20291;-63
2023/04/07 00:37:49;;;;;;;17.50;12.65;;;;;;;;;;4980469;28;20285;-64
2023/04/07 00:40:19;;;;;;;14.27;12.52;;;;;;;;;;4979362;28;20306;-63
2023/04/07 00:42:48;;;;;;;12.77;11.45;;;;;;;;;;4966271;28;20271;-63
2023/04/07 00:45:16;;;;;;;12.70;11.27;;;;;;;;;;4961141;29;20738;-63
2023/04/07 00:47:44;;;;;;;13.30;11.90;;;;;;;;;;4943959;29;20214;-63
2023/04/07 00:50:13;;;;;;;13.57;11.75;;;;;;;;;;4959596;29;20219;-64
2023/04/07 00:52:42;;;;;;;16.00;11.32;;;;;;;;;;4972778;28;20251;-63
2023/04/07 00:55:10;;;;;;;12.13;10.70;;;;;;;;;;4979599;28;20290;-63
2023/04/07 00:57:40;;;;;;;14.05;11.50;;;;;;;;;;4979265;28;20260;-63
2023/04/07 01:00:09;;;;;;;12.10;10.75;;;;;;;;;;4979557;28;20282;-64
2023/04/07 01:02:41;;;;;;;19.05;11.20;;;;;;;;;;4975247;28;20331;-63
2023/04/07 01:05:12;;;;;;;15.85;12.18;;;;;;;;;;4959789;29;20255;-63
2023/04/07 01:07:44;;;;;;;13.38;11.98;;;;;;;;;;4943539;29;20199;-63
2023/04/07 01:10:18;;;;;;;16.00;12.10;;;;;;;;;;4943079;29;20279;-64
2023/04/07 01:13:02;;;;;;;13.73;11.90;;;;;;;;;;4942394;29;20220;-63
2023/04/07 01:15:31;;;;;;;14.82;11.00;;;;;;;;;;4943333;29;20252;-64
2023/04/07 01:18:04;;;;;;;16.88;12.32;;;;;;;;;;4940144;28;20279;-63
2023/04/07 01:20:33;;;;;;;16.33;12.13;;;;;;;;;;4981255;28;20283;-63
2023/04/07 01:23:04;;;;;;;12.35;10.85;;;;;;;;;;4963410;28;20247;-63
2023/04/07 01:25:43;;;;;;;16.35;12.80;;;;;;;;;;4979563;28;20270;-63
2023/04/07 01:28:19;;;;;;;14.82;13.20;;;;;;;;;;4956167;29;20291;-64
2023/04/07 01:30:50;;;;;;;13.57;12.15;;;;;;;;;;4971122;28;20250;-63
2023/04/07 01:33:19;;;;;;;22.45;15.05;;;;;;;;;;4977203;28;20215;-63
2023/04/07 01:35:49;;;;;;;18.33;14.25;;;;;;;;;;4933885;29;20279;-64
2023/04/07 01:38:17;;;;;;;18.35;14.15;;;;;;;;;;4940948;29;20287;-63
2023/04/07 01:40:46;;;;;;;13.65;11.73;;;;;;;;;;4951495;28;20259;-64
2023/04/07 01:43:15;;;;;;;16.17;13.98;;;;;;;;;;4958889;29;20203;-63
2023/04/07 01:45:43;;;;;;;14.70;12.45;;;;;;;;;;4959092;28;20259;-64
2023/04/07 01:48:14;;;;;;;18.60;13.00;;;;;;;;;;4959429;28;20916;-63
2023/04/07 01:50:43;;;;;;;13.48;11.60;;;;;;;;;;4952990;28;20769;-64
2023/04/07 01:53:12;;;;;;;13.55;11.55;;;;;;;;;;4960821;28;20358;-64
2023/04/07 01:55:40;;;;;;;12.68;11.35;;;;;;;;;;4977780;28;20281;-63
2023/04/07 01:58:10;;;;;;;16.90;13.18;;;;;;;;;;4943666;29;20302;-63
2023/04/07 02:00:42;;;;;;;17.67;12.75;;;;;;;;;;4953560;28;20192;-66
2023/04/07 02:03:28;;;;;;;14.70;12.50;;;;;;;;;;4960289;28;20279;-66
2023/04/07 02:06:00;;;;;;;14.40;11.57;;;;;;;;;;4947190;28;20279;-64
2023/04/07 02:08:31;;;;;;;14.23;11.30;;;;;;;;;;4927192;29;20259;-63
2023/04/07 02:11:02;;;;;;;14.70;12.82;;;;;;;;;;4928561;29;20212;-62
2023/04/07 02:13:34;;;;;;;16.10;11.98;;;;;;;;;;4948393;28;20306;-63
2023/04/07 02:16:03;;;;;;;13.35;11.27;;;;;;;;;;4977846;28;20282;-64
2023/04/07 02:18:32;;;;;;;18.13;12.48;;;;;;;;;;4961142;28;20290;-62
2023/04/07 02:21:01;;;;;;;15.30;11.55;;;;;;;;;;4975721;28;20652;-62
2023/04/07 02:23:29;;;;;;;16.20;12.05;;;;;;;;;;4960629;28;20604;-62
2023/04/07 02:25:58;;;;;;;15.38;12.05;;;;;;;;;;4960372;28;20658;-62
2023/04/07 02:28:26;;;;;;;18.80;11.85;;;;;;;;;;4962333;29;20263;-62
2023/04/07 02:30:54;;;;;;;13.90;10.93;;;;;;;;;;4961816;28;20283;-63
2023/04/07 02:33:23;;;;;;;15.60;12.07;;;;;;;;;;4962230;29;20259;-64
2023/04/07 02:35:53;;;;;;;13.32;11.02;;;;;;;;;;4946115;28;20263;-67
2023/04/07 02:38:22;;;;;;;12.40;11.15;;;;;;;;;;4965628;28;20730;-64
2023/04/07 02:40:50;;;;;;;15.30;11.98;;;;;;;;;;4962225;28;20282;-64
2023/04/07 02:43:19;;;;;;;14.07;11.65;;;;;;;;;;4969729;28;20258;-63
2023/04/07 02:45:48;;;;;;;14.98;12.25;;;;;;;;;;4980917;28;20604;-63
2023/04/07 02:48:16;;;;;;;16.65;11.98;;;;;;;;;;4981349;28;20310;-62
2023/04/07 02:50:44;;;;;;;14.05;12.18;;;;;;;;;;4980611;28;20287;-62
2023/04/07 02:53:14;;;;;;;14.43;11.50;;;;;;;;;;4980994;28;20272;-63
2023/04/07 02:55:42;;;;;;;14.65;12.18;;;;;;;;;;4981412;28;20227;-62
2023/04/07 02:58:11;;;;;;;15.10;11.90;;;;;;;;;;4980623;28;20709;-64
2023/04/07 03:00:43;;;;;;;14.45;11.27;;;;;;;;;;4976847;28;20275;-63
2023/04/07 03:03:15;;;;;;;16.55;12.52;;;;;;;;;;4966002;28;20863;-63
2023/04/07 03:05:51;;;;;;;14.07;11.57;;;;;;;;;;4962573;28;20738;-62
2023/04/07 03:08:21;;;;;;;14.93;11.48;;;;;;;;;;4956610;29;20263;-63
2023/04/07 03:10:49;;;;;;;13.10;10.38;;;;;;;;;;4961015;28;20291;-63
2023/04/07 03:13:19;;;;;;;16.30;11.77;;;;;;;;;;4951332;28;20286;-62
2023/04/07 03:15:47;;;;;;;13.80;12.20;;;;;;;;;;4980953;28;20305;-62
2023/04/07 03:18:16;;;;;;;14.75;12.15;;;;;;;;;;4956344;29;20253;-62
2023/04/07 03:20:46;;;;;;;14.90;11.13;;;;;;;;;;4944253;29;20306;-62
2023/04/07 03:23:15;;;;;;;13.43;10.85;;;;;;;;;;4961735;28;20286;-64
2023/04/07 03:25:45;;;;;;;14.43;11.98;;;;;;;;;;4962632;28;20265;-62
2023/04/07 03:28:14;;;;;;;17.42;12.27;;;;;;;;;;4951879;28;20278;-63
2023/04/07 03:30:42;;;;;;;13.45;11.32;;;;;;;;;;4962681;28;20634;-62
2023/04/07 03:33:11;;;;;;;14.55;11.48;;;;;;;;;;4942806;29;20285;-62
2023/04/07 03:35:39;;;;;;;14.30;11.15;;;;;;;;;;4944422;28;20280;-63
2023/04/07 03:38:08;;;;;;;14.70;10.50;;;;;;;;;;4944656;29;20287;-62
2023/04/07 03:40:37;;;;;;;14.50;10.98;;;;;;;;;;4948773;28;20278;-62
2023/04/07 03:43:11;;;;;;;16.42;11.80;;;;;;;;;;4980063;28;20318;-62
2023/04/07 03:45:39;;;;;;;12.75;11.10;;;;;;;;;;4963913;28;20247;-62
2023/04/07 03:48:10;;;;;;;14.20;11.00;;;;;;;;;;4948071;28;20302;-62
2023/04/07 03:50:44;;;;;;;15.73;12.45;;;;;;;;;;4955762;29;20303;-62
2023/04/07 03:53:18;;;;;;;19.33;12.07;;;;;;;;;;4945803;29;20625;-63
2023/04/07 03:55:46;;;;;;;15.93;13.27;;;;;;;;;;4954361;29;20299;-63
2023/04/07 03:58:24;;;;;;;15.00;10.95;;;;;;;;;;4944818;29;20268;-63
2023/04/07 04:00:52;;;;;;;13.18;11.43;;;;;;;;;;4943790;29;20253;-64
2023/04/07 04:03:20;;;;;;;13.07;11.13;;;;;;;;;;4940560;29;20211;-62
2023/04/07 04:06:00;;;;;;;13.07;11.40;;;;;;;;;;4940921;29;20272;-63
2023/04/07 04:08:31;;;;;;;12.43;11.07;;;;;;;;;;4945800;29;20252;-62
2023/04/07 04:10:59;;;;;;;25.65;20.60;;;;;;;;;;4961232;28;20263;-64
2023/04/07 04:13:35;;;;;;;16.63;14.07;;;;;;;;;;4959958;29;20282;-62
2023/04/07 04:16:06;;;;;;;16.27;12.02;;;;;;;;;;4948760;29;20707;-62
2023/04/07 04:18:35;;;;;;;12.70;11.20;;;;;;;;;;4932085;29;20260;-62
2023/04/07 04:21:05;;;;;;;13.70;11.90;;;;;;;;;;4944412;29;20275;-64
2023/04/07 04:23:34;;;;;;;13.82;10.98;;;;;;;;;;4952002;29;20285;-63
2023/04/07 04:26:03;;;;;;;14.82;11.68;;;;;;;;;;4940749;29;20264;-65
2023/04/07 04:28:33;;;;;;;15.93;12.27;;;;;;;;;;4946808;29;20605;-65
2023/04/07 04:31:05;;;;;;;12.63;10.98;;;;;;;;;;4960318;29;20329;-63
2023/04/07 04:33:40;;;;;;;14.50;12.45;;;;;;;;;;4950961;29;20284;-63
2023/04/07 04:36:08;;;;;;;20.42;14.40;;;;;;;;;;4941970;29;20276;-63
2023/04/07 04:38:36;;;;;;;17.23;13.75;;;;;;;;;;4940442;29;20264;-63
2023/04/07 04:41:10;;;;;;;16.48;12.80;;;;;;;;;;4941688;29;20252;-63
2023/04/07 04:43:38;;;;;;;14.93;12.43;;;;;;;;;;4941176;29;20303;-64
2023/04/07 04:46:10;;;;;;;16.10;12.65;;;;;;;;;;4957495;29;20279;-64
2023/04/07 04:48:42;;;;;;;14.07;11.70;;;;;;;;;;4959176;28;20281;-63
2023/04/07 04:51:10;;;;;;;13.98;11.55;;;;;;;;;;4951522;28;20314;-63
2023/04/07 04:53:42;;;;;;;16.55;13.10;;;;;;;;;;4943547;29;20585;-66
2023/04/07 04:56:10;;;;;;;16.08;12.55;;;;;;;;;;4976154;28;20680;-63
2023/04/07 04:58:45;;;;;;;13.50;11.63;;;;;;;;;;4962611;28;20250;-63
2023/04/07 05:01:20;;;;;;;13.60;11.98;;;;;;;;;;4949268;29;20207;-64
2023/04/07 05:03:56;;;;;;;14.88;11.85;;;;;;;;;;4941616;29;20290;-64
2023/04/07 05:06:29;;;;;;;16.33;13.10;;;;;;;;;;4941707;28;20199;-66
2023/04/07 05:09:02;;;;;;;16.02;13.35;;;;;;;;;;4962384;28;20192;-64
2023/04/07 05:11:39;;;;;;;18.33;12.43;;;;;;;;;;4948150;28;20188;-65
2023/04/07 05:14:07;;;;;;;14.35;10.65;;;;;;;;;;4947246;29;20288;-64
2023/04/07 05:16:37;;;;;;;19.30;12.30;;;;;;;;;;4958553;28;20224;-64
2023/04/07 05:19:06;;;;;;;16.38;13.32;;;;;;;;;;4962615;28;20281;-64
2023/04/07 05:21:35;;;;;;;17.80;14.68;;;;;;;;;;4956930;28;20290;-64
2023/04/07 05:24:05;;;;;;;12.70;10.55;;;;;;;;;;4942314;29;20370;-64
2023/04/07 05:26:35;;;;;;;12.23;10.95;;;;;;;;;;4958115;28;20251;-64
2023/04/07 05:29:05;;;;;;;12.55;10.68;;;;;;;;;;4958897;28;20322;-64
2023/04/07 05:31:36;;;;;;;12.05;10.85;;;;;;;;;;4951547;29;20293;-62
2023/04/07 05:34:09;;;;;;;14.35;10.80;;;;;;;;;;4959152;28;20298;-64
2023/04/07 05:36:43;;;;;;;16.67;10.00;;;;;;;;;;4958408;28;20215;-65
2023/04/07 05:39:12;;;;;;;13.07;11.68;;;;;;;;;;4967294;28;20203;-63
2023/04/07 05:41:41;;;;;;;13.82;11.18;;;;;;;;;;4955530;28;20264;-64
2023/04/07 05:44:10;;;;;;;12.70;10.90;;;;;;;;;;4932883;28;20298;-62
2023/04/07 05:46:41;;;;;;;12.13;10.45;;;;;;;;;;4957922;29;20304;-64
2023/04/07 05:49:12;;;;;;;13.00;10.15;;;;;;;;;;4965470;28;20716;-62
2023/04/07 05:51:40;;;;;;;12.18;10.35;;;;;;;;;;4957414;29;20371;-62
2023/04/07 05:54:12;;;;;;;13.60;11.45;;;;;;;;;;4958012;28;20286;-65
2023/04/07 05:56:41;;;;;;;12.48;11.15;;;;;;;;;;4968149;28;20283;-63
2023/04/07 05:59:09;;;;;;;13.65;12.07;;;;;;;;;;4960985;28;20290;-62
2023/04/07 06:01:37;;;;;;;13.13;11.63;;;;;;;;;;4966998;28;20354;-63
2023/04/07 06:04:06;;;;;;;13.05;11.63;;;;;;;;;;4945296;28;20300;-63
2023/04/07 06:06:37;;;;;;;14.48;11.55;;;;;;;;;;4953967;29;20260;-64
2023/04/07 06:09:05;;;;;;;14.60;11.60;;;;;;;;;;4963444;28;20260;-64
2023/04/07 06:11:33;;;;;;;14.90;11.27;;;;;;;;;;4947760;29;20263;-64
2023/04/07 06:14:01;;;;;;;16.25;11.75;;;;;;;;;;4964820;28;20286;-66
2023/04/07 06:16:30;;;;;;;14.60;10.93;;;;;;;;;;4962753;29;20303;-63
2023/04/07 06:18:59;;;;;;;14.70;12.48;;;;;;;;;;4962813;28;20633;-63
2023/04/07 06:21:30;;;;;;;14.32;11.80;;;;;;;;;;4953821;28;20255;-63
2023/04/07 06:24:00;;;;;;;13.95;11.45;;;;;;;;;;4953154;28;20207;-63
2023/04/07 06:26:29;;;;;;;15.95;12.00;;;;;;;;;;4970293;28;20272;-65
2023/04/07 06:28:58;;;;;;;15.48;13.43;;;;;;;;;;4971667;28;20208;-66
2023/04/07 06:31:26;;;;;;;22.40;14.73;;;;;;;;;;4967005;28;20204;-64
2023/04/07 06:33:57;;;;;;;16.27;12.35;;;;;;;;;;4953469;28;20336;-65
2023/04/07 06:36:26;;;;;;;14.57;11.57;;;;;;;;;;4966740;28;20223;-64
2023/04/07 06:38:55;;;;;;;16.40;12.88;;;;;;;;;;4968720;28;20199;-64
2023/04/07 06:41:24;;;;;;;16.27;11.90;;;;;;;;;;4967992;28;20778;-64
2023/04/07 06:43:52;;;;;;;12.90;11.30;;;;;;;;;;4961968;29;20342;-65
2023/04/07 06:46:21;;;;;;;13.15;11.85;;;;;;;;;;4953702;28;20286;-66
2023/04/07 06:48:49;;;;;;;12.68;11.30;;;;;;;;;;4970904;28;20199;-63
2023/04/07 06:51:18;;;;;;;13.38;10.95;;;;;;;;;;4966040;28;20292;-64
2023/04/07 06:53:47;;;;;;;13.30;11.32;;;;;;;;;;4961383;28;20199;-65
2023/04/07 06:56:15;;;;;;;13.52;10.40;;;;;;;;;;4962633;28;20299;-63
2023/04/07 06:58:45;;;;;;;13.75;11.93;;;;;;;;;;4965795;28;20209;-63
2023/04/07 07:01:13;;;;;;;11.38;9.73;;;;;;;;;;4973143;28;20216;-65
2023/04/07 07:03:41;;;;;;;11.05;8.93;;;;;;;;;;4971457;28;20303;-64
2023/04/07 07:06:09;;;;;;;11.52;8.77;;;;;;;;;;4964868;28;20203;-64
2023/04/07 07:08:38;;;;;;;9.57;8.40;;;;;;;;;;4967371;28;20200;-64
2023/04/07 07:11:06;;;;;;;7.85;7.10;;;;;;;;;;4964326;28;20200;-64
2023/04/07 07:13:35;;;;;;;7.82;6.32;;;;;;;;;;4970905;28;20260;-63
2023/04/07 07:16:04;;;;;;;8.02;6.47;;;;;;;;;;4970272;28;20220;-64
2023/04/07 07:18:33;;;;;;;7.20;6.50;;;;;;;;;;4945865;28;20200;-65
2023/04/07 07:21:01;;;;;;;7.47;6.35;;;;;;;;;;4960430;28;20265;-65
2023/04/07 07:23:29;;;;;;;8.25;7.35;;;;;;;;;;4974894;28;20207;-65
2023/04/07 07:25:57;;;;;;;7.00;5.43;;;;;;;;;;4978330;28;20202;-64
2023/04/07 07:28:27;;;;;;;7.43;6.68;;;;;;;;;;4975740;28;20210;-64
2023/04/07 07:30:56;;;;;;;8.68;7.60;;;;;;;;;;4978461;28;20290;-64
2023/04/07 07:33:25;;;;;;;10.60;6.72;;;;;;;;;;4972081;28;20202;-64
2023/04/07 07:35:53;;;;;;;8.82;8.13;;;;;;;;;;4957675;29;20208;-64
2023/04/07 07:38:21;;;;;;;5.82;5.32;;;;;;;;;;4958161;29;20271;-68
2023/04/07 07:40:50;;;;;;;7.72;5.53;;;;;;;;;;4957557;28;20836;-65
2023/04/07 07:43:18;;;;;;;5.93;5.05;;;;;;;;;;4958817;29;20695;-65
2023/04/07 07:45:46;;;;;;;7.47;5.85;;;;;;;;;;4962182;28;20290;-67
2023/04/07 07:48:15;;;;;;;11.68;10.60;;;;;;;;;;4979831;28;20262;-65
2023/04/07 07:50:44;;;;;;;5.95;5.18;;;;;;;;;;4964809;28;20239;-66
2023/04/07 07:53:12;;;;;;;6.03;5.32;;;;;;;;;;4968755;28;20553;-65
2023/04/07 07:55:41;;;;;;;5.13;4.68;;;;;;;;;;4964328;28;20541;-65
2023/04/07 07:58:09;;;;;;;5.90;5.40;;;;;;;;;;4964689;28;20235;-65
2023/04/07 08:00:37;;;;;;;11.20;9.77;;;;;;;;;;4962111;28;20204;-67
2023/04/07 08:03:05;;;;;;;10.05;5.38;;;;;;;;;;4963144;28;20574;-66
2023/04/07 08:05:34;;;;;;;8.52;5.78;;;;;;;;;;4965214;28;20200;-66
2023/04/07 08:08:03;;;;;;;7.75;4.93;;;;;;;;;;4966066;28;20257;-66
2023/04/07 08:10:31;;;;;;;9.13;8.23;;;;;;;;;;4965590;28;20226;-65
2023/04/07 08:13:00;;;;;;;9.73;8.82;;;;;;;;;;4949922;28;20200;-66
2023/04/07 08:15:28;;;;;;;6.38;5.78;;;;;;;;;;4964704;28;20200;-68
2023/04/07 08:17:56;;;;;;;5.95;4.90;;;;;;;;;;4970036;28;20222;-66
2023/04/07 08:20:24;;;;;;;5.55;5.07;;;;;;;;;;4964849;28;20289;-65
2023/04/07 08:22:53;;;;;;;8.55;5.22;;;;;;;;;;4957921;28;20714;-66
2023/04/07 08:25:22;;;;;;;5.97;5.20;;;;;;;;;;4970847;28;20698;-64
2023/04/07 08:27:50;;;;;;;8.68;6.05;;;;;;;;;;4961354;28;20207;-66
2023/04/07 08:30:19;;;;;;;6.47;4.35;;;;;;;;;;4965065;28;20212;-66
2023/04/07 08:32:48;;;;;;;8.75;4.85;;;;;;;;;;4957351;29;20230;-66
2023/04/07 08:35:16;;;;;;;10.23;3.78;;;;;;;;;;4950223;28;20283;-66
2023/04/07 08:37:44;;;;;;;5.57;3.80;;;;;;;;;;4938251;29;20217;-64
2023/04/07 08:40:13;;;;;;;4.68;3.90;;;;;;;;;;4958575;28;20692;-64
2023/04/07 08:42:43;;;;;;;5.22;4.03;;;;;;;;;;4977137;28;20208;-65
2023/04/07 08:45:13;;;;;;;4.78;3.80;;;;;;;;;;4967419;28;20270;-64
2023/04/07 08:47:41;;;;;;;4.70;4.30;;;;;;;;;;4957733;29;20202;-65
2023/04/07 08:50:11;;;;;;;7.45;4.25;;;;;;;;;;4967287;28;20559;-66
2023/04/07 08:52:42;;;;;;;6.53;4.00;;;;;;;;;;4977344;28;20260;-66
2023/04/07 08:55:10;;;;;;;5.93;4.13;;;;;;;;;;4952869;28;20607;-64
2023/04/07 08:57:39;;;;;;;6.70;4.97;;;;;;;;;;4961181;28;20593;-65
2023/04/07 09:00:09;;;;;;;13.93;7.90;;;;;;;;;;4964590;28;20695;-64
2023/04/07 09:02:38;;;;;;;7.37;5.07;;;;;;;;;;4959542;28;20619;-64
2023/04/07 09:05:07;;;;;;;7.43;4.87;;;;;;;;;;4953965;29;20618;-65
2023/04/07 09:07:36;;;;;;;4.45;4.03;;;;;;;;;;4954628;29;20633;-65
2023/04/07 09:10:05;;;;;;;6.50;3.73;;;;;;;;;;4954120;29;20760;-65
2023/04/07 09:12:33;;;;;;;5.63;4.43;;;;;;;;;;4956007;29;20641;-64
2023/04/07 09:15:01;;;;;;;10.52;4.80;;;;;;;;;;4954076;29;20619;-65
2023/04/07 09:17:31;;;;;;;4.70;4.37;;;;;;;;;;4953933;29;20242;-65
2023/04/07 09:20:00;;;;;;;8.83;5.40;;;;;;;;;;4955552;29;20652;-65
2023/04/07 09:22:35;;;;;;;5.90;3.93;;;;;;;;;;4955362;29;20620;-65
2023/04/07 09:25:10;;;;;;;4.53;3.80;;;;;;;;;;4955754;29;20595;-65
2023/04/07 09:27:38;;;;;;;5.63;3.97;;;;;;;;;;4954232;29;20595;-65
2023/04/07 09:30:14;;;;;;;7.30;4.63;;;;;;;;;;4955424;29;21012;-65
2023/04/07 09:32:44;;;;;;;4.27;3.57;;;;;;;;;;4955931;29;20945;-65
2023/04/07 09:35:12;;;;;;;6.40;4.93;;;;;;;;;;4955096;28;20598;-65
2023/04/07 09:37:42;;;;;;;6.00;4.65;;;;;;;;;;4938266;29;20651;-65
2023/04/07 09:40:11;;;;;;;6.30;4.10;;;;;;;;;;4938062;29;20210;-66
2023/04/07 09:42:47;;;;;;;6.27;4.87;;;;;;;;;;4937897;29;20623;-65
2023/04/07 09:45:24;;;;;;;5.73;4.50;;;;;;;;;;4955192;29;20692;-65
2023/04/07 09:47:54;;;;;;;7.47;4.70;;;;;;;;;;4955250;29;20949;-65
2023/04/07 09:50:33;;;;;;;13.17;8.80;;;;;;;;;;4954695;29;20630;-65
2023/04/07 09:53:03;;;;;;;5.17;4.30;;;;;;;;;;4954429;29;20619;-65
2023/04/07 09:55:32;;;;;;;8.73;4.50;;;;;;;;;;4954755;29;20992;-65
2023/04/07 09:58:01;;;;;;;4.67;4.37;;;;;;;;;;4954198;29;20655;-65
2023/04/07 10:00:29;;;;;;;7.37;4.50;;;;;;;;;;4954534;29;20954;-66
2023/04/07 10:02:58;;;;;;;5.73;5.23;;;;;;;;;;4953065;29;20600;-65
2023/04/07 10:05:26;;;;;;;8.90;5.27;;;;;;;;;;4954333;29;21209;-65
2023/04/07 10:07:55;;;;;;;6.37;5.20;;;;;;;;;;4954428;29;20734;-66
2023/04/07 10:10:23;;;;;;;8.10;5.30;;;;;;;;;;4954203;29;20590;-65
2023/04/07 10:12:52;;;;;;;6.67;5.40;;;;;;;;;;4954967;29;20630;-67
2023/04/07 10:15:21;;;;;;;6.47;5.20;;;;;;;;;;4953898;29;20955;-66
2023/04/07 10:17:50;;;;;;;6.93;6.20;;;;;;;;;;4954316;29;21218;-66
2023/04/07 10:20:20;;;;;;;16.47;10.00;;;;;;;;;;4954638;29;20976;-65
2023/04/07 10:22:49;;;;;;;6.13;5.70;;;;;;;;;;4954875;29;20620;-65
2023/04/07 10:25:19;;;;;;;6.13;5.53;;;;;;;;;;4954171;29;21170;-65
2023/04/07 10:27:50;;;;;;;6.47;5.50;;;;;;;;;;4954870;29;20591;-65
2023/04/07 10:30:19;;;;;;;6.60;6.00;;;;;;;;;;4953475;29;20595;-65
2023/04/07 10:32:48;;;;;;;6.83;6.10;;;;;;;;;;4955513;29;20630;-66
2023/04/07 10:35:17;;;;;;;11.03;6.03;;;;;;;;;;4953929;29;20620;-65
2023/04/07 10:38:00;;;;;;;7.67;5.90;;;;;;;;;;4954215;29;20671;-65
2023/04/07 10:40:30;;;;;;;7.73;6.93;;;;;;;;;;4952631;29;20632;-65
2023/04/07 10:42:58;;;;;;;5.63;5.13;;;;;;;;;;4954697;29;20583;-65
2023/04/07 10:45:44;;;;;;;6.53;5.97;;;;;;;;;;4953795;28;20623;-66
2023/04/07 10:48:13;;;;;;;7.57;5.20;;;;;;;;;;4929031;29;20653;-66
2023/04/07 10:50:41;;;;;;;7.30;6.67;;;;;;;;;;4956597;29;20661;-65
2023/04/07 10:53:11;;;;;;;5.40;5.10;;;;;;;;;;4959949;28;20638;-65
2023/04/07 10:55:40;;;;;;;6.23;5.63;;;;;;;;;;4938923;29;20627;-66
2023/04/07 10:58:19;;;;;;;8.13;5.77;;;;;;;;;;4937518;29;20663;-67
2023/04/07 11:01:06;;;;;;;6.60;6.00;;;;;;;;;;4956534;28;21203;-66
2023/04/07 11:03:35;;;;;;;5.97;5.43;;;;;;;;;;4954371;28;21024;-66
2023/04/07 11:06:04;;;;;;;6.40;6.00;;;;;;;;;;4960866;28;20662;-66
2023/04/07 11:08:33;;;;;;;6.73;6.27;;;;;;;;;;4922710;28;20674;-66
2023/04/07 11:11:07;;;;;;;11.80;6.57;;;;;;;;;;4955384;28;20639;-70
2023/04/07 11:13:41;;;;;;;5.90;5.50;;;;;;;;;;4953555;28;20614;-65
2023/04/07 11:16:10;;;;;;;8.70;6.63;;;;;;;;;;4926043;29;21251;-66
2023/04/07 11:18:39;;;;;;;5.00;4.57;;;;;;;;;;4959663;28;20667;-66
2023/04/07 11:21:10;;;;;;;4.13;3.80;;;;;;;;;;4960243;28;20996;-66
2023/04/07 11:23:39;;;;;;;3.33;3.03;;;;;;;;;;4979042;28;20742;-66
2023/04/07 11:26:10;;;;;;;4.17;3.40;;;;;;;;;;4975173;28;20627;-66
2023/04/07 11:28:46;;;;;;;3.53;3.20;;;;;;;;;;4978490;28;20686;-64
2023/04/07 11:31:21;;;;;;;3.27;3.03;;;;;;;;;;4976290;28;20616;-66
2023/04/07 11:33:53;;;;;;;5.50;3.30;;;;;;;;;;4952524;29;20702;-66
2023/04/07 11:36:28;;;;;;;11.33;3.77;;;;;;;;;;4971441;28;20607;-67
2023/04/07 11:38:57;;;;;;;4.00;3.70;;;;;;;;;;4977603;28;20626;-65
2023/04/07 11:41:29;;;;;;;4.43;4.03;;;;;;;;;;4963415;28;20709;-65
2023/04/07 11:44:07;;;;;;;13.10;4.37;;;;;;;;;;4957540;29;20578;-65
2023/04/07 11:46:36;;;;;;;4.10;3.80;;;;;;;;;;4954037;28;20724;-66
2023/04/07 11:49:11;;;;;;;4.00;3.70;;;;;;;;;;4976174;28;20621;-66
2023/04/07 11:51:40;;;;;;;4.30;3.60;;;;;;;;;;4957697;28;20662;-66
2023/04/07 11:54:08;;;;;;;6.17;4.00;;;;;;;;;;4971142;28;20635;-64
2023/04/07 11:56:46;;;;;;;3.50;2.97;;;;;;;;;;4976846;28;20695;-65
2023/04/07 11:59:21;;;;;;;7.40;4.10;;;;;;;;;;4976751;28;20657;-64
2023/04/07 12:01:50;;;;;;;5.83;3.37;;;;;;;;;;4957003;28;20625;-65
2023/04/07 12:04:19;;;;;;;3.50;3.20;;;;;;;;;;4957046;28;20983;-65
2023/04/07 12:06:48;;;;;;;3.33;3.13;;;;;;;;;;4957186;29;20594;-65
2023/04/07 12:09:26;;;;;;;3.17;2.97;;;;;;;;;;4955140;28;20634;-64
2023/04/07 12:11:57;;;;;;;3.40;3.20;;;;;;;;;;4967253;28;20606;-66
2023/04/07 12:14:26;;;;;;;6.20;3.57;;;;;;;;;;4973973;28;20629;-66
2023/04/07 12:16:56;;;;;;;3.80;3.50;;;;;;;;;;4959326;28;20722;-65
2023/04/07 12:19:25;;;;;;;3.47;3.17;;;;;;;;;;4956865;28;20685;-65
2023/04/07 12:21:54;;;;;;;3.90;3.70;;;;;;;;;;4975019;28;21158;-65
2023/04/07 12:24:22;;;;;;;4.50;3.57;;;;;;;;;;4957638;28;20673;-65
2023/04/07 12:26:51;;;;;;;3.47;3.27;;;;;;;;;;4957220;29;20756;-65
2023/04/07 12:29:20;;;;;;;3.47;3.27;;;;;;;;;;4956431;28;20640;-66
2023/04/07 12:31:49;;;;;;;3.80;3.33;;;;;;;;;;4937098;29;20683;-65
2023/04/07 12:34:17;;;;;;;3.90;3.60;;;;;;;;;;4972297;28;20683;-65
2023/04/07 12:36:45;;;;;;;3.20;3.10;;;;;;;;;;4948276;29;20627;-65
2023/04/07 12:39:14;;;;;;;4.17;3.90;;;;;;;;;;4955428;28;20671;-66
2023/04/07 12:41:44;;;;;;;3.57;3.20;;;;;;;;;;4952330;28;20642;-66
2023/04/07 12:44:12;;;;;;;2.60;2.50;;;;;;;;;;4953293;28;20609;-65
2023/04/07 12:46:42;;;;;;;3.30;3.10;;;;;;;;;;4954212;29;21365;-65
2023/04/07 12:49:10;;;;;;;3.53;3.30;;;;;;;;;;4952237;28;20656;-65
2023/04/07 12:51:40;;;;;;;3.43;3.30;;;;;;;;;;4954985;29;20667;-65
2023/04/07 12:54:09;;;;;;;3.63;3.53;;;;;;;;;;4955403;29;20710;-65
2023/04/07 12:56:39;;;;;;;3.97;3.73;;;;;;;;;;4958400;28;21075;-66
2023/04/07 12:59:07;;;;;;;4.27;4.07;;;;;;;;;;4941501;28;20668;-65
2023/04/07 13:01:36;;;;;;;4.27;4.07;;;;;;;;;;4962096;28;20627;-66
2023/04/07 13:04:05;;;;;;;5.03;4.23;;;;;;;;;;4953909;28;20640;-68
2023/04/07 13:06:33;;;;;;;4.57;4.37;;;;;;;;;;4955879;29;20696;-65
2023/04/07 13:09:02;;;;;;;4.57;4.20;;;;;;;;;;4955487;28;20636;-64
2023/04/07 13:11:30;;;;;;;8.63;4.60;;;;;;;;;;4958166;28;20639;-64
2023/04/07 13:13:58;;;;;;;3.40;3.30;;;;;;;;;;4957760;28;20638;-64
2023/04/07 13:16:26;;;;;;;4.00;3.90;;;;;;;;;;4956818;28;20642;-64
2023/04/07 13:18:54;;;;;;;3.30;3.20;;;;;;;;;;4955745;29;20691;-65
2023/04/07 13:21:24;;;;;;;2.87;2.77;;;;;;;;;;4955334;28;21072;-66
2023/04/07 13:23:52;;;;;;;3.10;2.93;;;;;;;;;;4960879;28;20639;-65
2023/04/07 13:26:21;;;;;;;2.90;2.80;;;;;;;;;;4968198;28;20614;-65
2023/04/07 13:28:49;;;;;;;3.20;3.10;;;;;;;;;;4956145;28;20694;-65
2023/04/07 13:31:17;;;;;;;4.20;4.00;;;;;;;;;;4955765;29;20623;-65
2023/04/07 13:33:45;;;;;;;4.90;4.60;;;;;;;;;;4956741;28;20636;-65
2023/04/07 13:36:14;;;;;;;4.90;4.60;;;;;;;;;;4946364;29;21207;-65
2023/04/07 13:38:44;;;;;;;5.13;4.93;;;;;;;;;;4956688;28;20609;-65
2023/04/07 13:41:12;;;;;;;5.90;5.70;;;;;;;;;;4963504;28;20635;-65
2023/04/07 13:43:40;;;;;;;6.67;6.37;;;;;;;;;;4955957;28;20638;-65
2023/04/07 13:46:08;;;;;;;6.10;5.80;;;;;;;;;;4958156;28;20640;-64
2023/04/07 13:48:36;;;;;;;6.57;6.27;;;;;;;;;;4954160;28;21817;-64
2023/04/07 13:51:05;;;;;;;5.80;5.53;;;;;;;;;;4954033;28;21031;-64
2023/04/07 13:53:33;;;;;;;4.80;4.70;;;;;;;;;;4959446;28;20636;-64
2023/04/07 13:56:04;;;;;;;4.90;4.77;;;;;;;;;;4954764;28;20650;-64
2023/04/07 13:58:33;;;;;;;5.77;5.37;;;;;;;;;;4938521;29;20596;-64
2023/04/07 14:01:01;;;;;;;4.90;4.70;;;;;;;;;;4954958;28;21045;-64
2023/04/07 14:03:29;;;;;;;4.47;4.27;;;;;;;;;;4960490;28;20608;-64
2023/04/07 14:06:00;;;;;;;4.00;3.80;;;;;;;;;;4961171;28;20628;-64
2023/04/07 14:08:28;;;;;;;3.17;3.07;;;;;;;;;;4963126;28;20586;-63
2023/04/07 14:10:56;;;;;;;3.40;3.30;;;;;;;;;;4958209;28;20634;-63
2023/04/07 14:13:26;;;;;;;3.07;2.97;;;;;;;;;;4955373;29;20624;-67
2023/04/07 14:15:54;;;;;;;2.87;2.77;;;;;;;;;;4956122;28;20638;-64
2023/04/07 14:18:23;;;;;;;4.10;2.87;;;;;;;;;;4953394;28;21023;-65
2023/04/07 14:20:51;;;;;;;2.80;2.70;;;;;;;;;;4959329;28;21011;-65
2023/04/07 14:23:19;;;;;;;1.90;1.90;;;;;;;;;;4959330;29;20683;-66
2023/04/07 14:25:47;;;;;;;2.40;2.30;;;;;;;;;;4952305;29;20636;-65
2023/04/07 14:28:16;;;;;;;3.10;2.90;;;;;;;;;;4935674;29;20999;-67
2023/04/07 14:30:46;;;;;;;2.63;2.53;;;;;;;;;;4938242;29;21127;-65
2023/04/07 14:33:16;;;;;;;2.90;2.70;;;;;;;;;;4953166;29;20646;-64
2023/04/07 14:35:44;;;;;;;2.20;2.10;;;;;;;;;;4935171;29;20598;-65
2023/04/07 14:38:12;;;;;;;1.50;1.40;;;;;;;;;;4954763;29;20618;-66
2023/04/07 14:40:40;;;;;;;1.10;1.10;;;;;;;;;;4958575;29;21301;-65
2023/04/07 14:43:09;;;;;;;1.10;1.10;;;;;;;;;;4958640;29;21316;-65
2023/04/07 14:45:37;;;;;;;1.50;1.40;;;;;;;;;;4958451;29;20594;-65